createdAt,value
2023-05-14T00:01:36.130Z,14.25
2023-05-14T00:04:03.697Z,14.18
2023-05-14T00:06:30.527Z,13.98
2023-05-14T00:08:57.421Z,13.92
2023-05-14T00:11:24.119Z,14.01
2023-05-14T00:13:50.991Z,14.08
2023-05-14T00:16:17.674Z,14.08
2023-05-14T00:18:44.360Z,14.00
2023-05-14T00:21:11.079Z,13.98
2023-05-14T00:23:37.676Z,13.99
2023-05-14T00:26:04.578Z,13.97
2023-05-14T00:28:31.208Z,13.87
2023-05-14T00:30:57.927Z,13.76
2023-05-14T00:33:24.717Z,13.77
2023-05-14T00:35:51.764Z,13.81
2023-05-14T00:38:19.485Z,13.84
2023-05-14T00:40:51.835Z,13.79
2023-05-14T00:43:20.706Z,13.80
2023-05-14T00:45:52.254Z,13.86
2023-05-14T00:48:20.137Z,13.84
2023-05-14T00:50:47.112Z,13.76
2023-05-14T00:53:14.058Z,13.56
2023-05-14T00:55:42.211Z,13.49
2023-05-14T00:58:13.689Z,13.51
2023-05-14T01:00:41.569Z,13.51
2023-05-14T01:03:09.289Z,13.36
2023-05-14T01:06:02.804Z,13.35
2023-05-14T01:09:23.793Z,13.24
2023-05-14T01:12:02.868Z,13.26
2023-05-14T01:14:37.703Z,13.24
2023-05-14T01:17:06.201Z,13.15
2023-05-14T01:19:52.108Z,13.02
2023-05-14T01:22:18.775Z,12.87
2023-05-14T01:24:45.404Z,12.85
2023-05-14T01:27:21.159Z,12.82
2023-05-14T01:30:08.654Z,12.88
2023-05-14T01:32:36.640Z,12.85
2023-05-14T01:35:04.487Z,12.76
2023-05-14T01:37:32.495Z,12.73
2023-05-14T01:40:00.423Z,12.68
2023-05-14T01:42:28.565Z,12.70
2023-05-14T01:44:56.055Z,12.70
2023-05-14T01:47:22.728Z,12.70
2023-05-14T01:49:49.479Z,12.63
2023-05-14T01:52:20.862Z,12.58
2023-05-14T01:54:48.635Z,12.49
2023-05-14T01:57:15.496Z,12.51
2023-05-14T01:59:42.089Z,12.50
2023-05-14T02:02:08.652Z,12.55
2023-05-14T02:04:35.687Z,12.46
2023-05-14T02:07:02.327Z,12.33
2023-05-14T02:09:29.217Z,12.33
2023-05-14T02:11:55.852Z,12.26
2023-05-14T02:14:22.520Z,12.20
2023-05-14T02:16:49.126Z,12.23
2023-05-14T02:19:15.786Z,12.30
2023-05-14T02:21:42.393Z,12.21
2023-05-14T02:24:08.960Z,12.22
2023-05-14T02:26:35.526Z,12.22
2023-05-14T02:29:02.140Z,12.15
2023-05-14T02:31:28.869Z,12.01
2023-05-14T02:33:55.773Z,11.91
2023-05-14T02:36:22.774Z,11.92
2023-05-14T02:38:49.706Z,11.84
2023-05-14T02:41:16.431Z,11.92
2023-05-14T02:43:43.036Z,11.78
2023-05-14T02:46:09.636Z,11.83
2023-05-14T02:48:36.261Z,11.88
2023-05-14T02:51:02.918Z,11.88
2023-05-14T02:53:29.576Z,11.92
2023-05-14T02:55:56.231Z,11.91
2023-05-14T02:58:23.379Z,11.97
2023-05-14T03:00:54.059Z,11.91
2023-05-14T03:03:21.300Z,11.80
2023-05-14T03:05:48.430Z,11.70
2023-05-14T03:08:15.102Z,11.67
2023-05-14T03:10:41.719Z,11.66
2023-05-14T03:13:08.362Z,11.77
2023-05-14T03:15:35.057Z,11.74
2023-05-14T03:18:01.687Z,11.67
2023-05-14T03:20:28.402Z,11.63
2023-05-14T03:22:56.149Z,11.69
2023-05-14T03:25:22.873Z,11.76
2023-05-14T03:27:49.546Z,11.76
2023-05-14T03:30:17.421Z,11.82
2023-05-14T03:32:45.479Z,11.96
2023-05-14T03:35:12.190Z,11.99
2023-05-14T03:37:38.797Z,11.82
2023-05-14T03:40:06.349Z,11.78
2023-05-14T03:42:32.938Z,11.65
2023-05-14T03:44:59.656Z,11.67
2023-05-14T03:47:26.345Z,11.62
2023-05-14T03:49:53.545Z,11.62
2023-05-14T03:52:20.122Z,11.69
2023-05-14T03:54:46.812Z,11.71
2023-05-14T03:57:15.003Z,11.62
2023-05-14T03:59:41.623Z,11.68
2023-05-14T04:02:08.274Z,11.65
2023-05-14T04:04:34.981Z,11.66
2023-05-14T04:07:02.488Z,11.63
2023-05-14T04:09:29.108Z,11.78
2023-05-14T04:11:56.614Z,11.87
2023-05-14T04:14:23.331Z,11.97
2023-05-14T04:16:49.989Z,11.86
2023-05-14T04:19:16.706Z,11.73
2023-05-14T04:21:43.450Z,11.73
2023-05-14T04:24:09.955Z,11.61
2023-05-14T04:26:36.518Z,11.57
2023-05-14T04:29:03.479Z,11.62
2023-05-14T04:31:30.476Z,11.72
2023-05-14T04:33:57.099Z,11.69
2023-05-14T04:36:23.809Z,11.65
2023-05-14T04:38:50.678Z,11.62
2023-05-14T04:41:17.342Z,11.62
2023-05-14T04:43:43.865Z,11.70
2023-05-14T04:46:10.496Z,11.71
2023-05-14T04:48:37.363Z,11.75
2023-05-14T04:51:05.618Z,11.90
2023-05-14T04:53:33.745Z,11.96
2023-05-14T04:56:00.388Z,12.00
2023-05-14T04:58:29.122Z,12.03
2023-05-14T05:00:55.720Z,12.03
2023-05-14T05:03:22.433Z,12.12
2023-05-14T05:05:49.231Z,12.25
2023-05-14T05:08:15.989Z,12.25
2023-05-14T05:10:42.537Z,12.25
2023-05-14T05:13:09.118Z,12.27
2023-05-14T05:15:35.787Z,12.39
2023-05-14T05:18:02.534Z,12.40
2023-05-14T05:20:29.218Z,12.41
2023-05-14T05:22:55.758Z,12.64
2023-05-14T05:25:22.406Z,12.77
2023-05-14T05:27:49.042Z,12.84
2023-05-14T05:30:18.026Z,13.09
2023-05-14T05:32:44.983Z,13.26
2023-05-14T05:35:11.954Z,13.53
2023-05-14T05:37:38.564Z,13.66
2023-05-14T05:40:06.491Z,13.78
2023-05-14T05:42:33.089Z,14.05
2023-05-14T05:44:59.650Z,14.27
2023-05-14T05:47:26.393Z,14.33
2023-05-14T05:49:53.999Z,14.42
2023-05-14T05:52:20.696Z,14.42
2023-05-14T05:54:47.356Z,14.46
2023-05-14T05:57:13.945Z,14.38
2023-05-14T05:59:40.535Z,14.58
2023-05-14T06:02:07.245Z,14.64
2023-05-14T06:04:33.813Z,14.74
2023-05-14T06:07:00.504Z,14.92
2023-05-14T06:09:27.053Z,14.88
2023-05-14T06:11:53.580Z,14.85
2023-05-14T06:14:20.163Z,14.90
2023-05-14T06:16:46.866Z,15.00
2023-05-14T06:19:13.835Z,15.09
2023-05-14T06:21:40.759Z,15.02
2023-05-14T06:24:07.543Z,15.13
2023-05-14T06:26:34.141Z,15.17
2023-05-14T06:29:01.081Z,15.07
2023-05-14T06:31:27.705Z,15.01
2023-05-14T06:33:54.286Z,15.18
2023-05-14T06:36:21.350Z,15.24
2023-05-14T06:38:47.937Z,15.35
2023-05-14T06:41:14.554Z,15.23
2023-05-14T06:43:41.166Z,15.41
2023-05-14T06:46:07.690Z,15.35
2023-05-14T06:48:34.321Z,15.47
2023-05-14T06:51:01.039Z,15.53
2023-05-14T06:53:27.565Z,15.65
2023-05-14T06:55:54.247Z,15.56
2023-05-14T06:58:20.939Z,15.54
2023-05-14T07:00:48.448Z,15.67
2023-05-14T07:03:15.039Z,15.72
2023-05-14T07:05:42.090Z,15.83
2023-05-14T07:08:08.759Z,15.94
2023-05-14T07:10:35.459Z,16.08
2023-05-14T07:13:03.311Z,16.09
2023-05-14T07:15:29.996Z,16.17
2023-05-14T07:17:56.937Z,16.27
2023-05-14T07:20:26.853Z,16.38
2023-05-14T07:22:53.824Z,16.58
2023-05-14T07:25:20.420Z,16.69
2023-05-14T07:27:47.101Z,16.84
2023-05-14T07:30:18.086Z,16.84
2023-05-14T07:32:44.864Z,17.04
2023-05-14T07:35:12.446Z,17.02
2023-05-14T07:37:39.238Z,17.17
2023-05-14T07:40:06.458Z,17.25
2023-05-14T07:42:37.177Z,17.26
2023-05-14T07:45:05.584Z,17.43
2023-05-14T07:47:33.264Z,17.56
2023-05-14T07:49:59.973Z,17.53
2023-05-14T07:52:26.673Z,17.41
2023-05-14T07:54:53.532Z,17.72
2023-05-14T07:57:20.286Z,17.76
2023-05-14T07:59:48.546Z,17.79
2023-05-14T08:02:16.845Z,18.01
2023-05-14T08:04:43.871Z,17.95
2023-05-14T08:07:11.102Z,18.06
2023-05-14T08:09:37.809Z,18.23
2023-05-14T08:12:04.896Z,18.15
2023-05-14T08:14:31.494Z,18.46
2023-05-14T08:16:58.241Z,18.68
2023-05-14T08:19:27.204Z,18.57
2023-05-14T08:21:53.914Z,18.65
2023-05-14T08:24:20.805Z,18.82
2023-05-14T08:26:47.359Z,18.84
2023-05-14T08:29:16.138Z,18.89
2023-05-14T08:31:43.370Z,19.05
2023-05-14T08:34:10.024Z,19.13
2023-05-14T08:36:36.581Z,18.93
2023-05-14T08:39:28.508Z,18.87
2023-05-14T08:41:58.244Z,18.91
2023-05-14T08:44:45.635Z,19.10
2023-05-14T08:47:15.428Z,19.04
2023-05-14T08:49:44.988Z,18.98
2023-05-14T08:52:12.383Z,19.16
2023-05-14T08:54:40.296Z,19.33
2023-05-14T08:57:10.020Z,19.45
2023-05-14T08:59:37.002Z,19.50
2023-05-14T09:02:06.759Z,19.68
2023-05-14T09:04:34.407Z,19.84
2023-05-14T09:07:03.972Z,19.85
2023-05-14T09:09:31.281Z,19.61
2023-05-14T09:11:57.919Z,19.72
2023-05-14T09:14:24.636Z,20.04
2023-05-14T09:16:51.690Z,20.10
2023-05-14T09:19:19.450Z,20.22
2023-05-14T09:21:47.721Z,20.40
2023-05-14T09:24:22.223Z,20.44
2023-05-14T09:26:57.024Z,20.51
2023-05-14T09:29:28.842Z,20.58
2023-05-14T09:31:56.825Z,20.82
2023-05-14T09:34:28.664Z,20.82
2023-05-14T09:37:03.756Z,21.03
2023-05-14T09:39:31.794Z,20.81
2023-05-14T09:41:58.485Z,20.57
2023-05-14T09:44:25.652Z,20.41
2023-05-14T09:46:53.132Z,20.51
2023-05-14T09:49:19.960Z,20.36
2023-05-14T09:51:46.848Z,20.74
2023-05-14T09:54:13.424Z,21.24
2023-05-14T09:56:40.295Z,21.70
2023-05-14T09:59:32.781Z,22.11
2023-05-14T10:02:00.179Z,21.31
2023-05-14T10:04:26.881Z,21.01
2023-05-14T10:06:54.785Z,20.86
2023-05-14T10:09:26.133Z,20.84
2023-05-14T10:11:54.215Z,20.79
2023-05-14T10:14:33.589Z,20.92
2023-05-14T10:17:03.111Z,20.65
2023-05-14T10:19:35.180Z,21.17
2023-05-14T10:22:07.661Z,21.69
2023-05-14T10:24:35.318Z,21.77
2023-05-14T10:27:02.354Z,21.98
2023-05-14T10:29:34.407Z,21.97
2023-05-14T10:32:06.279Z,22.10
2023-05-14T10:34:41.446Z,22.42
2023-05-14T10:37:10.784Z,22.43
2023-05-14T10:39:49.466Z,21.97
2023-05-14T10:42:45.362Z,22.05
2023-05-14T10:45:14.910Z,21.99
2023-05-14T10:47:47.120Z,21.79
2023-05-14T10:50:15.749Z,21.73
2023-05-14T10:52:43.883Z,21.49
2023-05-14T10:55:14.272Z,21.48
2023-05-14T10:57:43.391Z,21.12
2023-05-14T11:00:11.356Z,21.22
2023-05-14T11:02:40.962Z,21.39
2023-05-14T11:05:13.778Z,21.30
2023-05-14T11:07:42.388Z,21.01
2023-05-14T11:10:12.108Z,21.28
2023-05-14T11:12:41.182Z,21.79
2023-05-14T11:15:28.285Z,22.22
2023-05-14T11:17:55.462Z,22.46
2023-05-14T11:20:22.573Z,22.22
2023-05-14T11:22:51.663Z,22.12
2023-05-14T11:25:18.915Z,22.04
2023-05-14T11:27:46.984Z,21.24
2023-05-14T11:30:18.920Z,21.18
2023-05-14T11:32:47.116Z,21.18
2023-05-14T11:35:14.836Z,21.03
2023-05-14T11:37:42.187Z,21.04
2023-05-14T11:40:14.540Z,21.05
2023-05-14T11:42:41.794Z,21.04
2023-05-14T11:45:11.984Z,21.14
2023-05-14T11:47:40.641Z,20.99
2023-05-14T11:50:09.394Z,21.14
2023-05-14T11:52:41.468Z,20.94
2023-05-14T11:55:14.566Z,21.13
2023-05-14T11:57:41.316Z,21.35
2023-05-14T12:00:21.461Z,21.53
2023-05-14T12:02:50.018Z,21.84
2023-05-14T12:05:17.213Z,22.05
2023-05-14T12:07:47.746Z,21.92
2023-05-14T12:10:15.000Z,22.03
2023-05-14T12:12:46.062Z,21.81
2023-05-14T12:15:14.093Z,21.61
2023-05-14T12:17:50.417Z,21.57
2023-05-14T12:20:17.406Z,21.77
2023-05-14T12:22:44.118Z,21.87
2023-05-14T12:25:14.325Z,22.14
2023-05-14T12:27:44.755Z,22.40
2023-05-14T12:30:20.651Z,22.61
2023-05-14T12:32:52.717Z,22.55
2023-05-14T12:35:21.556Z,22.72
2023-05-14T12:37:48.236Z,22.98
2023-05-14T12:40:14.965Z,23.11
2023-05-14T12:42:41.885Z,22.93
2023-05-14T12:45:09.026Z,22.89
2023-05-14T12:47:36.782Z,22.85
2023-05-14T12:50:04.019Z,22.99
2023-05-14T12:55:01.237Z,23.09
2023-05-14T12:57:28.286Z,22.62
2023-05-14T12:59:55.219Z,22.71
2023-05-14T13:02:21.938Z,22.75
2023-05-14T13:04:48.551Z,22.84
2023-05-14T13:07:15.529Z,22.95
2023-05-14T13:09:42.171Z,22.72
2023-05-14T13:12:09.209Z,22.59
2023-05-14T13:14:36.434Z,22.23
2023-05-14T13:17:04.888Z,22.15
2023-05-14T13:19:31.637Z,22.36
2023-05-14T13:21:58.331Z,22.45
2023-05-14T13:24:27.819Z,22.52
2023-05-14T13:26:54.457Z,22.72
2023-05-14T13:29:20.979Z,23.12
2023-05-14T13:31:47.968Z,23.40
2023-05-14T13:34:14.691Z,23.26
2023-05-14T13:36:43.478Z,22.72
2023-05-14T13:39:14.464Z,22.78
2023-05-14T13:41:41.825Z,23.09
2023-05-14T13:44:08.412Z,23.20
2023-05-14T13:46:35.119Z,23.25
2023-05-14T13:49:01.835Z,22.92
2023-05-14T13:51:28.533Z,23.03
2023-05-14T13:53:55.787Z,23.26
2023-05-14T13:56:22.810Z,22.61
2023-05-14T13:58:49.753Z,22.71
2023-05-14T14:01:16.422Z,22.86
2023-05-14T14:03:43.066Z,22.97
2023-05-14T14:06:09.650Z,23.15
2023-05-14T14:08:36.434Z,23.71
2023-05-14T14:11:03.107Z,24.22
2023-05-14T14:13:29.668Z,24.73
2023-05-14T14:15:56.856Z,24.41
2023-05-14T14:18:23.448Z,23.90
2023-05-14T14:20:50.066Z,24.02
2023-05-14T14:23:16.740Z,23.84
2023-05-14T14:25:43.546Z,22.94
2023-05-14T14:28:10.286Z,22.83
2023-05-14T14:30:36.885Z,22.83
2023-05-14T14:33:03.695Z,23.27
2023-05-14T14:35:30.798Z,23.91
2023-05-14T14:37:57.394Z,24.71
2023-05-14T14:40:24.425Z,24.90
2023-05-14T14:42:51.040Z,24.73
2023-05-14T14:45:17.788Z,24.76
2023-05-14T14:47:46.323Z,24.11
2023-05-14T14:50:13.678Z,22.75
2023-05-14T14:52:45.474Z,22.41
2023-05-14T14:55:13.052Z,21.86
2023-05-14T14:57:39.917Z,21.65
2023-05-14T15:00:07.353Z,21.99
2023-05-14T15:02:34.756Z,21.79
2023-05-14T15:05:01.509Z,21.86
2023-05-14T15:07:29.575Z,21.95
2023-05-14T15:09:56.296Z,21.80
2023-05-14T15:12:23.038Z,21.93
2023-05-14T15:14:49.631Z,21.68
2023-05-14T15:17:16.213Z,21.68
2023-05-14T15:19:42.961Z,21.27
2023-05-14T15:22:09.671Z,20.96
2023-05-14T15:24:36.328Z,20.80
2023-05-14T15:27:02.954Z,20.57
2023-05-14T15:29:29.577Z,20.46
2023-05-14T15:31:56.756Z,20.30
2023-05-14T15:34:23.601Z,20.49
2023-05-14T15:36:50.507Z,20.71
2023-05-14T15:39:17.124Z,20.79
2023-05-14T15:41:45.613Z,20.76
2023-05-14T15:44:12.315Z,20.91
2023-05-14T15:46:39.033Z,20.93
2023-05-14T15:49:06.023Z,20.64
2023-05-14T15:51:32.868Z,20.76
2023-05-14T15:53:59.464Z,20.89
2023-05-14T15:56:26.741Z,20.86
2023-05-14T15:58:53.417Z,21.11
2023-05-14T16:01:20.101Z,21.26
2023-05-14T16:03:46.888Z,21.17
2023-05-14T16:06:13.847Z,21.15
2023-05-14T16:08:40.530Z,21.21
2023-05-14T16:11:07.667Z,21.23
2023-05-14T16:13:35.733Z,21.18
2023-05-14T16:16:02.500Z,21.10
2023-05-14T16:18:29.651Z,21.09
2023-05-14T16:20:56.451Z,21.17
2023-05-14T16:23:23.039Z,21.15
2023-05-14T16:25:50.125Z,21.26
2023-05-14T16:28:16.945Z,21.20
2023-05-14T16:30:43.677Z,21.28
2023-05-14T16:33:10.432Z,21.26
2023-05-14T16:35:39.340Z,21.17
2023-05-14T16:38:06.020Z,21.22
2023-05-14T16:40:32.681Z,21.23
2023-05-14T16:42:59.315Z,21.27
2023-05-14T16:45:26.211Z,21.47
2023-05-14T16:47:53.506Z,21.57
2023-05-14T16:50:20.373Z,21.54
2023-05-14T16:52:46.962Z,21.44
2023-05-14T16:55:13.619Z,21.76
2023-05-14T16:57:40.441Z,21.74
2023-05-14T17:00:07.810Z,21.64
2023-05-14T17:02:34.469Z,21.41
2023-05-14T17:05:01.715Z,21.47
2023-05-14T17:07:28.418Z,21.18
2023-05-14T17:09:55.185Z,21.35
2023-05-14T17:12:21.819Z,21.28
2023-05-14T17:14:48.409Z,21.31
2023-05-14T17:17:15.014Z,21.36
2023-05-14T17:19:42.330Z,21.54
2023-05-14T17:22:09.109Z,21.44
2023-05-14T17:24:36.469Z,21.37
2023-05-14T17:27:03.329Z,21.36
2023-05-14T17:29:29.951Z,21.32
2023-05-14T17:31:56.569Z,21.26
2023-05-14T17:34:23.357Z,21.22
2023-05-14T17:36:50.390Z,21.04
2023-05-14T17:39:16.990Z,21.20
2023-05-14T17:41:43.739Z,21.22
2023-05-14T17:44:12.705Z,21.25
2023-05-14T17:46:39.992Z,21.25
2023-05-14T17:49:06.608Z,21.35
2023-05-14T17:51:33.292Z,21.29
2023-05-14T17:53:59.907Z,21.03
2023-05-14T17:56:26.600Z,21.07
2023-05-14T17:58:53.183Z,21.04
2023-05-14T18:01:19.836Z,20.87
2023-05-14T18:03:46.743Z,20.92
2023-05-14T18:06:13.477Z,20.90
2023-05-14T18:08:40.949Z,20.77
2023-05-14T18:11:07.489Z,20.72
2023-05-14T18:13:34.182Z,20.66
2023-05-14T18:16:01.165Z,20.60
2023-05-14T18:18:27.797Z,20.51
2023-05-14T18:20:54.530Z,20.47
2023-05-14T18:23:21.273Z,20.34
2023-05-14T18:25:48.232Z,20.39
2023-05-14T18:28:15.615Z,20.32
2023-05-14T18:30:43.467Z,20.23
2023-05-14T18:33:10.320Z,20.17
2023-05-14T18:35:37.319Z,20.11
2023-05-14T18:38:04.141Z,19.99
2023-05-14T18:40:30.830Z,20.02
2023-05-14T18:42:58.030Z,19.89
2023-05-14T18:45:25.010Z,19.78
2023-05-14T18:47:52.157Z,19.75
2023-05-14T18:50:19.016Z,19.56
2023-05-14T18:52:45.592Z,19.32
2023-05-14T18:55:15.580Z,19.16
2023-05-14T18:57:42.323Z,18.92
2023-05-14T19:00:09.595Z,18.80
2023-05-14T19:02:36.492Z,18.76
2023-05-14T19:05:03.252Z,18.48
2023-05-14T19:07:31.049Z,18.49
2023-05-14T19:09:57.567Z,18.31
2023-05-14T19:12:24.153Z,18.24
2023-05-14T19:14:50.801Z,18.32
2023-05-14T19:17:18.568Z,18.46
2023-05-14T19:19:47.014Z,18.42
2023-05-14T19:22:13.691Z,18.46
2023-05-14T19:24:40.352Z,18.58
2023-05-14T19:27:07.708Z,18.50
2023-05-14T19:29:36.788Z,18.61
2023-05-14T19:32:04.625Z,18.65
2023-05-14T19:34:31.310Z,18.68
2023-05-14T19:36:58.001Z,18.70
2023-05-14T19:39:24.920Z,18.72
2023-05-14T19:41:51.531Z,18.77
2023-05-14T19:44:18.287Z,18.72
2023-05-14T19:46:45.131Z,18.52
2023-05-14T19:49:12.119Z,18.55
2023-05-14T19:51:38.660Z,18.49
2023-05-14T19:54:05.344Z,18.53
2023-05-14T19:56:32.016Z,18.51
2023-05-14T19:58:58.787Z,18.47
2023-05-14T20:01:26.694Z,18.41
2023-05-14T20:03:53.315Z,18.41
2023-05-14T20:06:19.873Z,18.45
2023-05-14T20:08:46.453Z,18.43
2023-05-14T20:11:15.326Z,18.41
2023-05-14T20:13:41.946Z,18.37
2023-05-14T20:16:08.627Z,18.29
2023-05-14T20:18:35.269Z,18.26
2023-05-14T20:21:01.928Z,18.34
2023-05-14T20:23:28.558Z,18.33
2023-05-14T20:25:55.645Z,18.22
2023-05-14T20:28:22.249Z,18.25
2023-05-14T20:30:48.878Z,18.14
2023-05-14T20:33:15.843Z,18.04
2023-05-14T20:35:43.893Z,18.10
2023-05-14T20:38:12.555Z,18.12
2023-05-14T20:40:39.520Z,18.10
2023-05-14T20:43:06.185Z,18.01
2023-05-14T20:45:32.844Z,17.97
2023-05-14T20:47:59.448Z,17.86
2023-05-14T20:50:27.817Z,17.78
2023-05-14T20:52:55.286Z,17.75
2023-05-14T20:55:22.312Z,17.69
2023-05-14T20:57:49.815Z,17.70
2023-05-14T21:00:17.598Z,17.72
2023-05-14T21:02:44.350Z,17.71
2023-05-14T21:05:14.521Z,17.52
2023-05-14T21:07:41.319Z,17.65
2023-05-14T21:10:09.104Z,17.74
2023-05-14T21:12:40.630Z,17.73
2023-05-14T21:15:09.218Z,17.69
2023-05-14T21:17:35.901Z,17.61
2023-05-14T21:20:02.838Z,17.44
2023-05-14T21:22:29.652Z,17.28
2023-05-14T21:24:56.295Z,17.30
2023-05-14T21:27:23.218Z,17.36
2023-05-14T21:29:49.846Z,17.23
2023-05-14T21:32:16.535Z,17.27
2023-05-14T21:34:43.307Z,17.12
2023-05-14T21:37:10.035Z,17.21
2023-05-14T21:39:36.553Z,17.25
2023-05-14T21:42:03.325Z,17.21
2023-05-14T21:44:29.883Z,17.20
2023-05-14T21:46:56.439Z,17.19
2023-05-14T21:49:23.041Z,17.22
2023-05-14T21:51:53.065Z,17.09
2023-05-14T21:54:20.776Z,17.06
2023-05-14T21:56:47.669Z,17.10
2023-05-14T21:59:14.373Z,17.06
2023-05-14T22:02:04.963Z,17.00
2023-05-14T22:04:27.595Z,16.89
2023-05-14T22:06:54.279Z,16.90
2023-05-14T22:09:20.890Z,16.87
2023-05-14T22:11:47.567Z,16.92
2023-05-14T22:14:14.205Z,16.91
2023-05-14T22:16:40.923Z,16.77
2023-05-14T22:19:07.556Z,16.80
2023-05-14T22:21:34.144Z,16.83
2023-05-14T22:24:00.824Z,16.84
2023-05-14T22:26:27.417Z,16.89
2023-05-14T22:28:54.066Z,16.77
2023-05-14T22:31:20.901Z,16.74
2023-05-14T22:33:47.583Z,16.65
2023-05-14T22:36:14.243Z,16.41
2023-05-14T22:38:41.274Z,16.20
2023-05-14T22:41:07.970Z,16.10
2023-05-14T22:43:34.598Z,16.09
2023-05-14T22:46:01.355Z,16.13
2023-05-14T22:48:28.099Z,16.19
2023-05-14T22:50:54.912Z,16.16
2023-05-14T22:53:21.528Z,16.16
2023-05-14T22:55:48.165Z,16.07
2023-05-14T22:58:14.705Z,16.01
2023-05-14T23:00:41.271Z,15.94
2023-05-14T23:03:07.921Z,15.94
2023-05-14T23:05:34.623Z,15.91
2023-05-14T23:08:01.293Z,15.89
2023-05-14T23:10:27.961Z,15.78
2023-05-14T23:12:54.558Z,15.68
2023-05-14T23:15:21.105Z,15.74
2023-05-14T23:17:47.901Z,15.61
2023-05-14T23:20:14.858Z,15.39
2023-05-14T23:22:41.433Z,15.37
2023-05-14T23:25:08.639Z,15.34
2023-05-14T23:27:35.541Z,15.24
2023-05-14T23:30:03.442Z,15.11
2023-05-14T23:32:30.057Z,15.03
2023-05-14T23:34:56.783Z,14.94
2023-05-14T23:37:23.463Z,14.90
2023-05-14T23:39:50.444Z,14.95
2023-05-14T23:42:17.101Z,14.92
2023-05-14T23:44:43.756Z,15.01
2023-05-14T23:47:10.359Z,15.09
2023-05-14T23:49:37.489Z,15.16
2023-05-14T23:52:04.361Z,15.11
2023-05-14T23:54:30.904Z,14.97
2023-05-14T23:56:57.563Z,14.90
2023-05-14T23:59:24.118Z,14.89
